»·PEaware :: PAA512 KSNA-KSFO

PAA512 :: KSNA-KSFO

FLIGHT INFORMATION

Flight Status: Arrived
Operator:
PanAm
More flights by this operator :: More flights under this callsign
Pilot: Alex K. (14822)
Aircraft: BOEING 737-200
(B732)
More flights by this aircraft type
Origin: KSNA John Wayne-Orange Co
United States
Destination: KSFO San Francisco Intl
United States
More flights between these airports :: More routes between these airports
Route: CHANL3 RZS BSR BSR3
File this flight plan on PilotEdge
Remarks: PBN / A1B2 NAV / RNVD1E2A1 DAT / V DOF / 180125 REG / N275SB EET / KZOA0038 RMK / NRP SIMBRIEF
Altitude:
(Current/Filed)
32,000ft
Speed:
(Current/Filed)
431kts
Departed: 24-Jan-18 08:25 PM
Arrived: 24-Jan-18 09:29 PM
Distance/Time
Traveled:
323nm/1:04
Distance/Time
To Go:
Arrived

Flight Plot

Page will automatically refresh every two minutes.

Flight plan parsing failed; only flown route is shown


Map Options




Map Legend


Flown Route
Filed Route
Departure Airport
Arrival Airport
Navaid (VOR, NDB)
Fix

Horizontal Profiles

Position Reports

Time Latitude Longitude Heading Altitude Ground
Speed
24-Jan-18 20:15 33.678692 -117.862712 99 65ft 0kts
24-Jan-18 20:16 33.678692 -117.862712 99 65ft 0kts
24-Jan-18 20:17 33.678692 -117.862712 99 65ft 0kts
24-Jan-18 20:18 33.678692 -117.862712 99 65ft 0kts
24-Jan-18 20:19 33.678692 -117.862712 99 65ft 0kts
24-Jan-18 20:20 33.678692 -117.862712 99 65ft 0kts
24-Jan-18 20:21 33.678692 -117.862712 99 65ft 0kts
24-Jan-18 20:22 33.678692 -117.862712 99 65ft 0kts
24-Jan-18 20:23 33.678692 -117.862712 99 65ft 0kts
24-Jan-18 20:24 33.678760 -117.863173 99 65ft 1kts
24-Jan-18 20:25 33.678579 -117.863631 26 65ft 1kts
24-Jan-18 20:26 33.678563 -117.863641 27 65ft 0kts
24-Jan-18 20:27 33.678820 -117.863478 27 65ft 7kts
24-Jan-18 20:28 33.680625 -117.863018 298 65ft 0kts
24-Jan-18 20:29 33.680629 -117.863025 298 65ft 0kts
24-Jan-18 20:30 33.681329 -117.865227 214 65ft 0kts
24-Jan-18 20:31 33.656766 -117.880671 207 1308ft 148kts
24-Jan-18 20:32 33.599073 -117.901900 189 3204ft 266kts
24-Jan-18 20:33 33.526137 -117.914940 192 6964ft 274kts
24-Jan-18 20:34 33.485068 -117.985567 256 10018ft 273kts
24-Jan-18 20:35 33.464668 -118.067081 250 12445ft 285kts
24-Jan-18 20:36 33.440464 -118.162528 250 14263ft 313kts
24-Jan-18 20:37 33.415233 -118.262198 250 16404ft 321kts
24-Jan-18 20:38 33.392323 -118.363998 268 18825ft 333kts
24-Jan-18 20:39 33.429550 -118.468602 299 20873ft 359kts
24-Jan-18 20:40 33.513140 -118.541988 319 22671ft 382kts
24-Jan-18 20:41 33.598305 -118.614040 317 24232ft 387kts
24-Jan-18 20:42 33.683401 -118.689053 316 25703ft 391kts
24-Jan-18 20:43 33.770817 -118.766491 317 26983ft 396kts
24-Jan-18 20:44 33.844450 -118.858244 291 28127ft 381kts
24-Jan-18 20:45 33.931419 -118.930156 341 29069ft 424kts
24-Jan-18 20:46 34.035527 -118.987102 321 29925ft 410kts
24-Jan-18 20:47 34.127732 -119.060709 319 30708ft 411kts
24-Jan-18 20:48 34.189682 -119.167352 295 31372ft 395kts
24-Jan-18 20:49 34.246954 -119.281010 298 31987ft 399kts
24-Jan-18 20:50 34.306397 -119.392037 298 32100ft 407kts
24-Jan-18 20:51 34.368242 -119.506689 298 32094ft 410kts
24-Jan-18 20:52 34.430000 -119.621392 298 32069ft 408kts
24-Jan-18 20:53 34.489893 -119.734455 297 32080ft 409kts
24-Jan-18 20:54 34.568459 -119.835560 311 32078ft 419kts
24-Jan-18 20:55 34.651017 -119.926170 311 32101ft 418kts
24-Jan-18 20:56 34.735534 -120.018926 310 32102ft 417kts
24-Jan-18 20:57 34.819559 -120.111405 310 32113ft 416kts
24-Jan-18 20:58 34.905316 -120.206018 310 32127ft 416kts
24-Jan-18 20:59 34.990830 -120.300646 310 32126ft 416kts
24-Jan-18 21:00 35.075717 -120.394855 310 32125ft 416kts
24-Jan-18 21:01 35.157550 -120.484903 310 32120ft 415kts
24-Jan-18 21:02 35.242116 -120.578717 306 32116ft 415kts
24-Jan-18 21:03 35.325138 -120.672293 305 32136ft 415kts
24-Jan-18 21:04 35.409505 -120.768460 305 32132ft 418kts
24-Jan-18 21:05 35.494914 -120.864852 305 32105ft 421kts
24-Jan-18 21:06 35.580446 -120.961459 306 32104ft 421kts
24-Jan-18 21:07 35.667415 -121.058079 307 32103ft 425kts
24-Jan-18 21:08 35.754906 -121.154492 306 32102ft 423kts
24-Jan-18 21:09 35.840583 -121.251365 305 31752ft 415kts
24-Jan-18 21:10 35.923744 -121.346113 305 30506ft 410kts
24-Jan-18 21:11 36.006326 -121.440523 305 29122ft 403kts
24-Jan-18 21:12 36.087857 -121.534131 305 27064ft 399kts
24-Jan-18 21:13 36.165771 -121.622807 306 25211ft 394kts
24-Jan-18 21:14 36.252513 -121.705255 314 23502ft 398kts
24-Jan-18 21:15 36.342281 -121.782477 313 21961ft 390kts
24-Jan-18 21:16 36.429473 -121.859128 312 20500ft 381kts
24-Jan-18 21:17 36.529473 -121.907792 338 18670ft 402kts
24-Jan-18 21:18 36.636747 -121.936149 339 17002ft 393kts
24-Jan-18 21:19 36.742129 -121.963551 339 15634ft 384kts
24-Jan-18 21:20 36.845016 -121.990484 340 14322ft 376kts
24-Jan-18 21:21 36.945927 -122.016886 341 13077ft 368kts
24-Jan-18 21:22 37.044672 -122.042794 342 11881ft 361kts
24-Jan-18 21:23 37.140106 -122.067789 342 10768ft 346kts
24-Jan-18 21:24 37.227711 -122.090912 344 9392ft 304kts
24-Jan-18 21:25 37.305908 -122.111799 347 8018ft 278kts
24-Jan-18 21:26 37.374708 -122.086459 24 7142ft 264kts
24-Jan-18 21:27 37.439957 -122.052438 9 5597ft 249kts
24-Jan-18 21:28 37.496298 -122.089131 306 4201ft 237kts
24-Jan-18 21:29 37.526518 -122.156518 297 3626ft 200kts
24-Jan-18 21:30 37.547791 -122.206565 296 2709ft 145kts
24-Jan-18 21:31 37.565791 -122.249251 296 1956ft 132kts
24-Jan-18 21:32 37.582832 -122.289344 298 1259ft 130kts
24-Jan-18 21:33 37.598662 -122.327360 298 585ft 129kts
24-Jan-18 21:34 37.615523 -122.367409 297 13ft 104kts
24-Jan-18 21:35 37.619670 -122.379308 227 30ft 8kts
24-Jan-18 21:36 37.620203 -122.383314 297 32ft 19kts
24-Jan-18 21:37 37.618776 -122.385182 154 32ft 3kts
24-Jan-18 21:38 37.618763 -122.385174 154 32ft 0kts

Navigation Log

Ident Type
Flight plan parsing failed, navigation log unavailable